C6701 KCRP-KAUS
Flight info
| Callsign | C6701 |
|---|---|
| Flight time | 0h 29m |
| Altitude | 6000 |
| Route | DIRECT |
| Aircraft | H60/L-DGILORTUVY/SB2 |
Departure
| Time | 2026-04-26 01:18 |
|---|---|
| Airport | Corpus Christi International Airport (KCRP) |
Arrival
| Time | 2026-04-26 01:47 |
|---|---|
| Airport | Austin Bergstrom International Airport (KAUS) |
| Time | Latitude | Longitude | Altitude | Speed | Heading |
|---|---|---|---|---|---|
| 2026-04-26 01:05 | 27.77520 | -97.49975 | 48 ft | 0 kts | 268° |
| 2026-04-26 01:17 | 27.77520 | -97.49967 | 58 ft | 4 kts | 267° |
| 2026-04-26 01:17 | 27.77513 | -97.49890 | 96 ft | 17 kts | 264° |
| 2026-04-26 01:17 | 27.77516 | -97.49985 | 186 ft | 25 kts | 261° |
| 2026-04-26 01:17 | 27.77495 | -97.50717 | 643 ft | 58 kts | 261° |
| 2026-04-26 01:18 | 27.77760 | -97.51656 | 1462 ft | 68 kts | 279° |
| 2026-04-26 01:18 | 27.78390 | -97.52512 | 2339 ft | 74 kts | 306° |
| 2026-04-26 01:18 | 27.79459 | -97.52759 | 2801 ft | 92 kts | 2° |
| 2026-04-26 01:18 | 27.80765 | -97.52698 | 2660 ft | 100 kts | 7° |
| 2026-04-26 01:19 | 27.82242 | -97.52684 | 3383 ft | 116 kts | 1° |
| 2026-04-26 01:19 | 27.83929 | -97.52419 | 3597 ft | 129 kts | 19° |
| 2026-04-26 01:19 | 27.85635 | -97.51635 | 3564 ft | 135 kts | 30° |
| 2026-04-26 01:19 | 27.87257 | -97.50476 | 3300 ft | 141 kts | 39° |
| 2026-04-26 01:20 | 27.89267 | -97.50208 | 2728 ft | 141 kts | 1° |
| 2026-04-26 01:20 | 27.91035 | -97.50182 | 3279 ft | 114 kts | 5° |
| 2026-04-26 01:20 | 27.92640 | -97.50110 | 3386 ft | 121 kts | 5° |
| 2026-04-26 01:20 | 27.94285 | -97.50141 | 2982 ft | 120 kts | 0° |
| 2026-04-26 01:21 | 27.96003 | -97.50223 | 2463 ft | 129 kts | 1° |
| 2026-04-26 01:21 | 27.97598 | -97.50278 | 2684 ft | 100 kts | 2° |
| 2026-04-26 01:21 | 27.98999 | -97.50369 | 3367 ft | 100 kts | 360° |
| 2026-04-26 01:21 | 28.00415 | -97.50486 | 2964 ft | 94 kts | 1° |
| 2026-04-26 01:22 | 28.01661 | -97.50554 | 2981 ft | 87 kts | 6° |
| 2026-04-26 01:22 | 28.03029 | -97.50678 | 2754 ft | 104 kts | 3° |
| 2026-04-26 01:22 | 28.04502 | -97.50781 | 3818 ft | 106 kts | 4° |
| 2026-04-26 01:22 | 28.06180 | -97.50649 | 4874 ft | 139 kts | 16° |
| 2026-04-26 01:23 | 28.08223 | -97.50137 | 4976 ft | 170 kts | 359° |
| 2026-04-26 01:23 | 28.10578 | -97.50713 | 4823 ft | 169 kts | 350° |
| 2026-04-26 01:23 | 28.12827 | -97.51086 | 5160 ft | 159 kts | 354° |
| 2026-04-26 01:23 | 28.15005 | -97.51254 | 5493 ft | 156 kts | 359° |
| 2026-04-26 01:24 | 28.17177 | -97.51227 | 5764 ft | 156 kts | 3° |
| 2026-04-26 01:24 | 28.19376 | -97.51204 | 5732 ft | 161 kts | 0° |
| 2026-04-26 01:24 | 28.21625 | -97.51497 | 5738 ft | 162 kts | 353° |
| 2026-04-26 01:24 | 28.23835 | -97.51883 | 5908 ft | 160 kts | 351° |
| 2026-04-26 01:25 | 28.26022 | -97.52290 | 6067 ft | 158 kts | 351° |
| 2026-04-26 01:25 | 28.28193 | -97.52711 | 6246 ft | 158 kts | 351° |
| 2026-04-26 01:25 | 28.30356 | -97.53152 | 6366 ft | 158 kts | 350° |
| 2026-04-26 01:25 | 28.32555 | -97.53616 | 6113 ft | 165 kts | 349° |
| 2026-04-26 01:26 | 28.34827 | -97.54110 | 5769 ft | 170 kts | 349° |
| 2026-04-26 01:26 | 28.37129 | -97.54625 | 5765 ft | 167 kts | 349° |
| 2026-04-26 01:26 | 28.39390 | -97.55146 | 5852 ft | 164 kts | 349° |
| 2026-04-26 01:26 | 28.41595 | -97.55668 | 6008 ft | 160 kts | 348° |
| 2026-04-26 01:27 | 28.43766 | -97.56192 | 6160 ft | 160 kts | 349° |
| 2026-04-26 01:27 | 28.46012 | -97.56476 | 6293 ft | 160 kts | 358° |
| 2026-04-26 01:27 | 28.48210 | -97.56378 | 6398 ft | 161 kts | 6° |
| 2026-04-26 01:27 | 28.50434 | -97.56097 | 6467 ft | 161 kts | 5° |
| 2026-04-26 01:28 | 28.52675 | -97.55992 | 6549 ft | 162 kts | 1° |
| 2026-04-26 01:28 | 28.54935 | -97.56063 | 6589 ft | 163 kts | 357° |
| 2026-04-26 01:28 | 28.57189 | -97.56308 | 6629 ft | 163 kts | 353° |
| 2026-04-26 01:28 | 28.59422 | -97.56730 | 6651 ft | 163 kts | 349° |
| 2026-04-26 01:29 | 28.61624 | -97.57331 | 6667 ft | 163 kts | 345° |
| 2026-04-26 01:29 | 28.63781 | -97.58110 | 6707 ft | 162 kts | 340° |
| 2026-04-26 01:29 | 28.65884 | -97.59061 | 6725 ft | 163 kts | 336° |
| 2026-04-26 01:29 | 28.67926 | -97.60180 | 6762 ft | 163 kts | 332° |
| 2026-04-26 01:30 | 28.69895 | -97.61464 | 6785 ft | 163 kts | 328° |
| 2026-04-26 01:30 | 28.71879 | -97.62725 | 6544 ft | 168 kts | 339° |
| 2026-04-26 01:30 | 28.74187 | -97.63125 | 6396 ft | 161 kts | 354° |
| 2026-04-26 01:30 | 28.76340 | -97.63290 | 6667 ft | 161 kts | 357° |
| 2026-04-26 01:31 | 28.78673 | -97.63362 | 6444 ft | 174 kts | 359° |
| 2026-04-26 01:31 | 28.81103 | -97.63327 | 6252 ft | 169 kts | 2° |
| 2026-04-26 01:31 | 28.83451 | -97.63198 | 6245 ft | 167 kts | 4° |
| 2026-04-26 01:31 | 28.85746 | -97.62979 | 6357 ft | 164 kts | 5° |
| 2026-04-26 01:32 | 28.88096 | -97.62747 | 6159 ft | 177 kts | 8° |
| 2026-04-26 01:32 | 28.90595 | -97.62451 | 5706 ft | 181 kts | 5° |
| 2026-04-26 01:32 | 28.93104 | -97.62303 | 5366 ft | 180 kts | 2° |
| 2026-04-26 01:32 | 28.95592 | -97.62302 | 5183 ft | 178 kts | 359° |
| 2026-04-26 01:33 | 28.98027 | -97.62352 | 5197 ft | 168 kts | 360° |
| 2026-04-26 01:33 | 29.00267 | -97.62509 | 5652 ft | 157 kts | 356° |
| 2026-04-26 01:33 | 29.02552 | -97.62671 | 5726 ft | 170 kts | 355° |
| 2026-04-26 01:33 | 29.04930 | -97.62748 | 5734 ft | 168 kts | 1° |
| 2026-04-26 01:34 | 29.07266 | -97.62736 | 5781 ft | 174 kts | 359° |
| 2026-04-26 01:34 | 29.09759 | -97.62896 | 5325 ft | 186 kts | 356° |
| 2026-04-26 01:34 | 29.12287 | -97.63036 | 5125 ft | 176 kts | 358° |
| 2026-04-26 01:34 | 29.14648 | -97.63100 | 5465 ft | 162 kts | 359° |
| 2026-04-26 01:35 | 29.16878 | -97.63167 | 5830 ft | 160 kts | 359° |
| 2026-04-26 01:35 | 29.19119 | -97.63210 | 5612 ft | 169 kts | 359° |
| 2026-04-26 01:35 | 29.21527 | -97.63222 | 4929 ft | 176 kts | 0° |
| 2026-04-26 01:35 | 29.23977 | -97.63312 | 4306 ft | 177 kts | 357° |
| 2026-04-26 01:36 | 29.26282 | -97.63482 | 4303 ft | 152 kts | 358° |
| 2026-04-26 01:36 | 29.28491 | -97.63667 | 4140 ft | 165 kts | 355° |
| 2026-04-26 01:36 | 29.30724 | -97.63861 | 4137 ft | 159 kts | 357° |
| 2026-04-26 01:37 | 29.35069 | -97.64486 | 4202 ft | 157 kts | 352° |
| 2026-04-26 01:37 | 29.37239 | -97.64793 | 4228 ft | 157 kts | 354° |
| 2026-04-26 01:37 | 29.39419 | -97.65013 | 4243 ft | 158 kts | 356° |
| 2026-04-26 01:37 | 29.41561 | -97.65180 | 4375 ft | 151 kts | 356° |
| 2026-04-26 01:38 | 29.43620 | -97.65413 | 4671 ft | 147 kts | 354° |
| 2026-04-26 01:38 | 29.45627 | -97.65726 | 5071 ft | 145 kts | 351° |
| 2026-04-26 01:38 | 29.47596 | -97.66119 | 5470 ft | 144 kts | 349° |
| 2026-04-26 01:38 | 29.49569 | -97.66567 | 5778 ft | 146 kts | 350° |
| 2026-04-26 01:39 | 29.51647 | -97.66638 | 5810 ft | 152 kts | 355° |
| 2026-04-26 01:39 | 29.53774 | -97.66802 | 5726 ft | 154 kts | 356° |
| 2026-04-26 01:39 | 29.55917 | -97.66933 | 5635 ft | 154 kts | 357° |
| 2026-04-26 01:39 | 29.58066 | -97.67033 | 5562 ft | 154 kts | 358° |
| 2026-04-26 01:40 | 29.60215 | -97.67102 | 5499 ft | 154 kts | 359° |
| 2026-04-26 01:40 | 29.62329 | -97.67102 | 5443 ft | 154 kts | 2° |
| 2026-04-26 01:40 | 29.64461 | -97.66999 | 5421 ft | 153 kts | 2° |
| 2026-04-26 01:40 | 29.66592 | -97.66935 | 5415 ft | 153 kts | 2° |
| 2026-04-26 01:41 | 29.68723 | -97.66867 | 5427 ft | 153 kts | 2° |
| 2026-04-26 01:41 | 29.70846 | -97.66812 | 5455 ft | 153 kts | 1° |
| 2026-04-26 01:41 | 29.72974 | -97.66775 | 5484 ft | 154 kts | 1° |
| 2026-04-26 01:41 | 29.75095 | -97.66511 | 5436 ft | 154 kts | 13° |
| 2026-04-26 01:42 | 29.77191 | -97.66002 | 5401 ft | 154 kts | 11° |
| 2026-04-26 01:42 | 29.79302 | -97.65613 | 5389 ft | 153 kts | 9° |
| 2026-04-26 01:42 | 29.81440 | -97.65363 | 5537 ft | 160 kts | 5° |
| 2026-04-26 01:42 | 29.83844 | -97.65146 | 5386 ft | 183 kts | 3° |
| 2026-04-26 01:43 | 29.86468 | -97.64922 | 4866 ft | 191 kts | 5° |
| 2026-04-26 01:43 | 29.88968 | -97.64759 | 5058 ft | 167 kts | 4° |
| 2026-04-26 01:43 | 29.91270 | -97.64658 | 5435 ft | 171 kts | 2° |
| 2026-04-26 01:43 | 29.92882 | -97.64603 | 5411 ft | 178 kts | 2° |
| 2026-04-26 01:44 | 29.95463 | -97.64548 | 4780 ft | 189 kts | 1° |
| 2026-04-26 01:44 | 29.98050 | -97.64577 | 4342 ft | 181 kts | 358° |
| 2026-04-26 01:44 | 30.00483 | -97.64681 | 4377 ft | 173 kts | 358° |
| 2026-04-26 01:44 | 30.02969 | -97.64803 | 4076 ft | 185 kts | 359° |
| 2026-04-26 01:45 | 30.05532 | -97.64901 | 3759 ft | 180 kts | 358° |
| 2026-04-26 01:45 | 30.08008 | -97.64839 | 3719 ft | 177 kts | 1° |
| 2026-04-26 01:45 | 30.10245 | -97.64967 | 3745 ft | 153 kts | 1° |
| 2026-04-26 01:45 | 30.12182 | -97.64176 | 2879 ft | 134 kts | 32° |
| 2026-04-26 01:46 | 30.13555 | -97.63246 | 3133 ft | 97 kts | 33° |
| 2026-04-26 01:46 | 30.14681 | -97.62569 | 2858 ft | 85 kts | 30° |
| 2026-04-26 01:46 | 30.15642 | -97.62361 | 2580 ft | 58 kts | 15° |
| 2026-04-26 01:46 | 30.16297 | -97.62639 | 2030 ft | 56 kts | 0° |
| 2026-04-26 01:47 | 30.16601 | -97.63470 | 1423 ft | 66 kts | 336° |
| 2026-04-26 01:47 | 30.17645 | -97.64283 | 1531 ft | 114 kts | 333° |
| 2026-04-26 01:47 | 30.18335 | -97.65538 | 1105 ft | 69 kts | 302° |
| 2026-04-26 01:47 | 30.18427 | -97.65924 | 696 ft | 21 kts | 300° |
| 2026-04-26 01:48 | 30.18424 | -97.65903 | 582 ft | 22 kts | 299° |
| 2026-04-26 01:48 | 30.18466 | -97.65929 | 581 ft | 3 kts | 299° |
| 2026-04-26 01:48 | 30.18504 | -97.66009 | 548 ft | 8 kts | 299° |
| 2026-04-26 01:48 | 30.18549 | -97.66107 | 523 ft | 7 kts | 300° |
| 2026-04-26 01:49 | 30.18564 | -97.66137 | 523 ft | 0 kts | 299° |
| 2026-04-26 01:49 | 30.18564 | -97.66129 | 523 ft | 2 kts | 140° |
| 2026-04-26 01:49 | 30.18562 | -97.66127 | 523 ft | 0 kts | 147° |
| 2026-04-26 01:49 | 30.18553 | -97.66120 | 523 ft | 1 kts | 144° |
| 2026-04-26 01:50 | 30.18541 | -97.66102 | 523 ft | 2 kts | 85° |
| 2026-04-26 01:50 | 30.18551 | -97.66101 | 523 ft | 0 kts | 276° |